createdAt,value
2018-09-01T00:01:17.692Z,90.80
2018-09-01T00:03:52.044Z,90.80
2018-09-01T00:06:26.841Z,90.80
2018-09-01T00:09:02.337Z,90.80
2018-09-01T00:11:37.212Z,90.80
2018-09-01T00:14:11.778Z,90.80
2018-09-01T00:16:46.362Z,90.80
2018-09-01T00:19:20.858Z,90.80
2018-09-01T00:21:55.344Z,90.80
2018-09-01T00:24:29.965Z,90.70
2018-09-01T00:27:04.567Z,90.70
2018-09-01T00:29:39.174Z,90.70
2018-09-01T00:32:13.721Z,90.70
2018-09-01T00:34:48.985Z,90.70
2018-09-01T00:37:29.452Z,90.70
2018-09-01T00:40:04.788Z,90.70
2018-09-01T00:42:39.025Z,90.70
2018-09-01T00:45:13.693Z,90.70
2018-09-01T00:47:49.400Z,90.70
2018-09-01T00:50:24.270Z,90.70
2018-09-01T00:52:58.552Z,90.70
2018-09-01T00:55:33.512Z,90.70
2018-09-01T00:58:07.852Z,90.80
2018-09-01T01:00:42.264Z,90.70
2018-09-01T01:03:17.116Z,90.70
2018-09-01T01:05:52.273Z,90.70
2018-09-01T01:08:26.444Z,90.70
2018-09-01T01:11:01.107Z,90.70
2018-09-01T01:13:35.861Z,90.70
2018-09-01T01:16:12.394Z,90.70
2018-09-01T01:18:47.589Z,90.70
2018-09-01T01:21:22.806Z,90.70
2018-09-01T01:23:57.217Z,90.70
2018-09-01T01:26:31.834Z,90.70
2018-09-01T01:29:06.604Z,90.70
2018-09-01T01:31:41.353Z,90.70
2018-09-01T01:34:16.199Z,90.70
2018-09-01T01:36:51.174Z,90.70
2018-09-01T01:39:25.723Z,91.00
2018-09-01T01:42:00.459Z,90.70
2018-09-01T01:44:35.009Z,90.70
2018-09-01T01:47:09.776Z,90.70
2018-09-01T01:49:44.261Z,90.60
2018-09-01T01:52:18.804Z,90.60
2018-09-01T01:54:53.802Z,90.60
2018-09-01T01:57:27.984Z,90.60
2018-09-01T02:00:02.924Z,90.80
2018-09-01T02:02:37.460Z,90.60
2018-09-01T02:05:21.080Z,90.70
2018-09-01T02:07:55.960Z,90.70
2018-09-01T02:10:31.665Z,90.60
2018-09-01T02:13:06.443Z,90.50
2018-09-01T02:15:41.032Z,90.30
2018-09-01T02:18:15.714Z,90.40
2018-09-01T02:20:50.368Z,90.60
2018-09-01T02:23:24.944Z,90.50
2018-09-01T02:25:59.534Z,90.60
2018-09-01T02:28:34.337Z,90.90
2018-09-01T02:31:09.020Z,90.50
2018-09-01T02:33:43.541Z,90.50
2018-09-01T02:36:18.300Z,90.50
2018-09-01T02:38:53.285Z,90.60
2018-09-01T02:41:27.884Z,90.50
2018-09-01T02:44:02.535Z,90.60
2018-09-01T02:46:37.211Z,90.60
2018-09-01T02:49:12.083Z,90.60
2018-09-01T02:51:46.484Z,90.70
2018-09-01T02:54:21.132Z,90.80
2018-09-01T02:56:56.168Z,90.90
2018-09-01T02:59:31.319Z,90.90
2018-09-01T03:02:06.198Z,90.80
2018-09-01T03:04:40.526Z,90.90
2018-09-01T03:07:15.237Z,90.90
2018-09-01T03:09:49.825Z,90.90
2018-09-01T03:12:24.500Z,90.90
2018-09-01T03:14:59.272Z,90.90
2018-09-01T03:17:34.008Z,90.90
2018-09-01T03:20:08.617Z,90.90
2018-09-01T03:22:43.341Z,91.00
2018-09-01T03:25:17.986Z,91.00
2018-09-01T03:27:52.696Z,91.00
2018-09-01T03:30:27.493Z,90.90
2018-09-01T03:33:02.549Z,91.00
2018-09-01T03:35:37.436Z,91.00
2018-09-01T03:38:12.195Z,91.00
2018-09-01T03:40:47.124Z,91.00
2018-09-01T03:43:21.510Z,91.00
2018-09-01T03:45:56.048Z,91.00
2018-09-01T03:48:30.615Z,91.00
2018-09-01T03:51:05.561Z,91.00
2018-09-01T03:53:39.718Z,91.00
2018-09-01T03:56:14.483Z,91.00
2018-09-01T03:58:49.294Z,91.00
2018-09-01T04:01:23.857Z,91.00
2018-09-01T04:03:58.556Z,91.00
2018-09-01T04:06:33.268Z,91.00
2018-09-01T04:09:08.233Z,90.90
2018-09-01T04:11:42.753Z,90.90
2018-09-01T04:14:17.442Z,90.70
2018-09-01T04:16:52.170Z,90.80
2018-09-01T04:19:26.839Z,90.70
2018-09-01T04:22:01.698Z,90.50
2018-09-01T04:24:36.147Z,90.50
2018-09-01T04:27:10.545Z,90.40
2018-09-01T04:29:45.286Z,90.40
2018-09-01T04:32:20.017Z,90.40
2018-09-01T04:34:54.701Z,90.50
2018-09-01T04:37:29.237Z,90.60
2018-09-01T04:40:04.613Z,90.50
2018-09-01T04:42:38.808Z,90.70
2018-09-01T04:45:13.194Z,90.60
2018-09-01T04:47:48.080Z,90.70
2018-09-01T04:50:23.177Z,90.70
2018-09-01T04:52:57.869Z,90.50
2018-09-01T04:55:32.483Z,90.50
2018-09-01T04:58:07.524Z,90.60
2018-09-01T05:00:42.102Z,90.60
2018-09-01T05:03:16.972Z,90.40
2018-09-01T05:05:51.808Z,90.50
2018-09-01T05:08:26.253Z,90.40
2018-09-01T05:11:01.039Z,90.40
2018-09-01T05:13:35.809Z,90.40
2018-09-01T05:16:10.593Z,90.40
2018-09-01T05:18:45.473Z,90.60
2018-09-01T05:21:19.825Z,90.80
2018-09-01T05:23:54.386Z,90.30
2018-09-01T05:26:29.091Z,90.30
2018-09-01T05:29:03.859Z,90.30
2018-09-01T05:31:38.712Z,90.20
2018-09-01T05:34:13.253Z,89.40
2018-09-01T05:36:47.961Z,89.80
2018-09-01T05:39:22.657Z,90.10
2018-09-01T05:41:57.236Z,89.70
2018-09-01T05:44:31.776Z,89.80
2018-09-01T05:47:06.373Z,89.50
2018-09-01T05:49:41.004Z,89.10
2018-09-01T05:52:15.857Z,89.30
2018-09-01T05:54:50.713Z,89.50
2018-09-01T05:57:25.927Z,89.60
2018-09-01T06:00:00.225Z,89.70
2018-09-01T06:02:35.207Z,89.20
2018-09-01T06:05:09.737Z,89.40
2018-09-01T06:07:45.042Z,89.70
2018-09-01T06:10:20.120Z,89.80
2018-09-01T06:12:54.717Z,89.50
2018-09-01T06:15:29.463Z,90.00
2018-09-01T06:18:04.364Z,90.00
2018-09-01T06:20:39.312Z,90.00
2018-09-01T06:23:14.442Z,90.10
2018-09-01T06:25:49.552Z,90.20
2018-09-01T06:28:29.737Z,90.20
2018-09-01T06:31:04.196Z,90.30
2018-09-01T06:33:38.687Z,90.10
2018-09-01T06:36:13.276Z,90.20
2018-09-01T06:38:48.032Z,90.10
2018-09-01T06:41:22.673Z,90.30
2018-09-01T06:43:57.399Z,90.20
2018-09-01T06:46:32.577Z,89.60
2018-09-01T06:49:07.016Z,90.00
2018-09-01T06:51:41.716Z,90.20
2018-09-01T06:54:16.611Z,90.30
2018-09-01T06:56:50.994Z,90.20
2018-09-01T06:59:25.710Z,90.20
2018-09-01T07:02:00.188Z,90.10
2018-09-01T07:04:35.484Z,89.50
2018-09-01T07:07:09.701Z,89.20
2018-09-01T07:09:45.072Z,88.80
2018-09-01T07:12:20.208Z,89.00
2018-09-01T07:14:55.500Z,89.70
2018-09-01T07:17:29.796Z,88.90
2018-09-01T07:20:04.423Z,89.40
2018-09-01T07:22:39.764Z,89.70
2018-09-01T07:25:14.714Z,89.20
2018-09-01T07:27:49.120Z,88.90
2018-09-01T07:30:28.476Z,89.50
2018-09-01T07:33:02.538Z,89.00
2018-09-01T07:35:37.068Z,89.40
2018-09-01T07:38:11.646Z,89.70
2018-09-01T07:40:46.115Z,90.10
2018-09-01T07:43:20.777Z,90.10
2018-09-01T07:45:55.368Z,90.00
2018-09-01T07:48:30.097Z,90.10
2018-09-01T07:51:04.924Z,90.10
2018-09-01T07:53:39.501Z,90.00
2018-09-01T07:56:14.354Z,89.50
2018-09-01T07:58:49.033Z,90.00
2018-09-01T08:01:24.221Z,90.10
2018-09-01T08:03:59.334Z,90.40
2018-09-01T08:06:33.825Z,90.70
2018-09-01T08:09:10.058Z,90.70
2018-09-01T08:11:45.222Z,90.60
2018-09-01T08:14:20.089Z,90.90
2018-09-01T08:16:54.634Z,90.50
2018-09-01T08:19:29.595Z,90.20
2018-09-01T08:22:04.056Z,90.20
2018-09-01T08:24:39.480Z,90.30
2018-09-01T08:27:13.876Z,89.80
2018-09-01T08:29:48.557Z,88.70
2018-09-01T08:32:23.143Z,89.50
2018-09-01T08:34:58.113Z,89.80
2018-09-01T08:37:32.250Z,89.80
2018-09-01T08:40:06.889Z,90.00
2018-09-01T08:42:41.506Z,90.10
2018-09-01T08:45:16.246Z,89.60
2018-09-01T08:47:50.976Z,89.30
2018-09-01T08:50:25.661Z,89.10
2018-09-01T08:53:00.273Z,89.30
2018-09-01T08:55:34.835Z,88.80
2018-09-01T08:58:09.562Z,89.20
2018-09-01T09:00:44.211Z,90.20
2018-09-01T09:03:18.728Z,90.00
2018-09-01T09:05:53.246Z,90.30
2018-09-01T09:08:28.007Z,90.30
2018-09-01T09:11:02.587Z,90.30
2018-09-01T09:13:37.580Z,90.30
2018-09-01T09:16:11.912Z,90.30
2018-09-01T09:18:46.601Z,90.10
2018-09-01T09:21:21.394Z,89.90
2018-09-01T09:23:56.025Z,89.50
2018-09-01T09:26:30.713Z,89.40
2018-09-01T09:29:05.491Z,89.50
2018-09-01T09:31:39.946Z,89.90
2018-09-01T09:34:14.734Z,89.60
2018-09-01T09:36:49.219Z,89.60
2018-09-01T09:39:23.749Z,89.60
2018-09-01T09:41:58.442Z,89.70
2018-09-01T09:44:33.158Z,89.80
2018-09-01T09:47:07.912Z,89.90
2018-09-01T09:49:42.243Z,90.00
2018-09-01T09:52:16.801Z,89.80
2018-09-01T09:54:51.647Z,89.50
2018-09-01T09:57:26.179Z,89.10
2018-09-01T10:00:00.648Z,89.10
2018-09-01T10:02:35.128Z,89.00
2018-09-01T10:05:09.661Z,88.40
2018-09-01T10:07:44.489Z,88.40
2018-09-01T10:10:18.856Z,88.60
2018-09-01T10:12:53.307Z,88.50
2018-09-01T10:15:27.806Z,88.20
2018-09-01T10:18:02.387Z,88.60
2018-09-01T10:20:36.921Z,88.60
2018-09-01T10:23:11.524Z,88.30
2018-09-01T10:25:46.151Z,88.70
2018-09-01T10:28:20.799Z,88.70
2018-09-01T10:30:55.261Z,88.80
2018-09-01T10:33:29.787Z,87.40
2018-09-01T10:36:06.470Z,87.80
2018-09-01T10:38:41.389Z,88.10
2018-09-01T10:41:16.452Z,88.40
2018-09-01T10:43:51.088Z,88.50
2018-09-01T10:46:26.214Z,88.50
2018-09-01T10:49:00.588Z,88.10
2018-09-01T10:51:35.238Z,88.00
2018-09-01T10:54:09.476Z,87.80
2018-09-01T10:56:44.014Z,86.30
2018-09-01T10:59:18.732Z,86.60
2018-09-01T11:01:53.256Z,86.80
2018-09-01T11:04:27.573Z,87.50
2018-09-01T11:07:02.407Z,87.70
2018-09-01T11:09:36.844Z,87.90
2018-09-01T11:12:11.525Z,87.80
2018-09-01T11:14:46.060Z,87.70
2018-09-01T11:17:20.793Z,87.60
2018-09-01T11:19:55.592Z,87.90
2018-09-01T11:22:30.294Z,88.50
2018-09-01T11:25:04.944Z,88.70
2018-09-01T11:27:39.509Z,87.70
2018-09-01T11:30:14.151Z,87.90
2018-09-01T11:32:48.852Z,87.90
2018-09-01T11:35:24.400Z,88.30
2018-09-01T11:37:59.185Z,88.00
2018-09-01T11:40:33.797Z,88.40
2018-09-01T11:43:08.616Z,89.00
2018-09-01T11:45:43.077Z,89.10
2018-09-01T11:48:17.846Z,89.30
2018-09-01T11:50:52.704Z,89.40
2018-09-01T11:53:27.133Z,90.00
2018-09-01T11:56:01.703Z,89.70
2018-09-01T11:58:36.348Z,89.70
2018-09-01T12:01:10.940Z,89.50
2018-09-01T12:03:46.060Z,89.20
2018-09-01T12:06:21.158Z,88.90
2018-09-01T12:08:55.829Z,88.90
2018-09-01T12:11:30.623Z,88.80
2018-09-01T12:14:05.269Z,88.80
2018-09-01T12:16:39.903Z,88.90
2018-09-01T12:19:14.892Z,88.70
2018-09-01T12:21:49.296Z,87.70
2018-09-01T12:24:23.999Z,88.00
2018-09-01T12:26:58.951Z,88.30
2018-09-01T12:29:33.476Z,88.70
2018-09-01T12:32:08.172Z,88.80
2018-09-01T12:34:43.797Z,89.10
2018-09-01T12:37:18.756Z,89.20
2018-09-01T12:39:53.167Z,89.10
2018-09-01T12:42:27.828Z,89.20
2018-09-01T12:45:02.418Z,88.70
2018-09-01T12:47:36.948Z,88.60
2018-09-01T12:50:11.661Z,88.70
2018-09-01T12:52:46.268Z,88.70
2018-09-01T12:55:21.116Z,88.80
2018-09-01T12:57:55.787Z,88.90
2018-09-01T13:00:30.166Z,89.00
2018-09-01T13:03:04.834Z,88.90
2018-09-01T13:05:39.599Z,89.00
2018-09-01T13:08:14.182Z,89.00
2018-09-01T13:10:48.932Z,88.90
2018-09-01T13:13:23.562Z,89.00
2018-09-01T13:16:00.209Z,89.20
2018-09-01T13:18:34.800Z,89.20
2018-09-01T13:21:09.440Z,89.20
2018-09-01T13:23:43.945Z,89.20
2018-09-01T13:26:18.520Z,89.20
2018-09-01T13:28:53.330Z,89.20
2018-09-01T13:31:28.126Z,89.20
2018-09-01T13:34:02.689Z,89.20
2018-09-01T13:36:37.349Z,89.10
2018-09-01T13:39:12.200Z,89.80
2018-09-01T13:41:46.984Z,89.20
2018-09-01T13:44:21.396Z,89.40
2018-09-01T13:46:56.384Z,89.50
2018-09-01T13:49:30.856Z,89.70
2018-09-01T13:52:05.503Z,89.50
2018-09-01T13:54:40.129Z,89.40
2018-09-01T13:57:14.893Z,89.20
2018-09-01T13:59:49.377Z,89.20
2018-09-01T14:02:24.153Z,89.20
2018-09-01T14:04:59.827Z,89.20
2018-09-01T14:07:34.412Z,89.00
2018-09-01T14:10:09.144Z,88.60
2018-09-01T14:12:43.730Z,88.60
2018-09-01T14:15:18.461Z,88.70
2018-09-01T14:17:53.203Z,88.90
2018-09-01T14:20:27.916Z,88.90
2018-09-01T14:23:02.464Z,89.10
2018-09-01T14:25:36.959Z,89.10
2018-09-01T14:28:11.520Z,88.90
2018-09-01T14:30:46.085Z,89.10
2018-09-01T14:33:20.728Z,89.40
2018-09-01T14:35:55.115Z,89.40
2018-09-01T14:38:29.764Z,89.50
2018-09-01T14:41:04.261Z,89.60
2018-09-01T14:43:40.809Z,89.60
2018-09-01T14:46:16.704Z,89.50
2018-09-01T14:48:51.650Z,89.20
2018-09-01T14:51:26.289Z,89.20
2018-09-01T14:54:00.660Z,89.40
2018-09-01T14:56:35.394Z,89.50
2018-09-01T14:59:10.200Z,89.60
2018-09-01T15:01:44.900Z,89.40
2018-09-01T15:04:19.648Z,89.20
2018-09-01T15:06:54.302Z,88.80
2018-09-01T15:09:28.936Z,89.40
2018-09-01T15:12:03.981Z,89.50
2018-09-01T15:14:38.505Z,89.30
2018-09-01T15:17:12.748Z,89.40
2018-09-01T15:19:47.468Z,89.40
2018-09-01T15:22:22.072Z,89.50
2018-09-01T15:24:56.837Z,89.50
2018-09-01T15:27:31.548Z,89.50
2018-09-01T15:30:06.478Z,89.70
2018-09-01T15:32:40.810Z,89.70
2018-09-01T15:35:15.555Z,89.60
2018-09-01T15:37:50.100Z,89.70
2018-09-01T15:40:24.757Z,89.70
2018-09-01T15:42:59.437Z,89.70
2018-09-01T15:45:37.868Z,89.90
2018-09-01T15:48:12.745Z,90.00
2018-09-01T15:50:47.206Z,89.70
2018-09-01T15:53:21.740Z,89.70
2018-09-01T15:55:56.572Z,89.50
2018-09-01T15:58:31.128Z,89.70
2018-09-01T16:01:05.853Z,89.60
2018-09-01T16:03:40.541Z,89.80
2018-09-01T16:06:15.084Z,89.80
2018-09-01T16:08:49.727Z,89.80
2018-09-01T16:11:24.555Z,89.80
2018-09-01T16:13:59.389Z,89.80
2018-09-01T16:16:33.865Z,90.00
2018-09-01T16:19:09.004Z,89.90
2018-09-01T16:21:43.652Z,90.00
2018-09-01T16:24:18.055Z,90.00
2018-09-01T16:26:52.585Z,90.00
2018-09-01T16:29:27.320Z,89.80
2018-09-01T16:32:02.083Z,89.80
2018-09-01T16:34:36.830Z,89.50
2018-09-01T16:37:11.225Z,89.60
2018-09-01T16:39:46.167Z,90.00
2018-09-01T16:42:20.376Z,89.50
2018-09-01T16:44:54.960Z,89.30
2018-09-01T16:47:29.596Z,89.40
2018-09-01T16:50:04.556Z,89.20
2018-09-01T16:52:38.940Z,89.20
2018-09-01T16:55:13.792Z,89.10
2018-09-01T16:57:48.312Z,89.30
2018-09-01T17:00:23.119Z,89.20
2018-09-01T17:02:57.864Z,89.40
2018-09-01T17:05:32.392Z,90.00
2018-09-01T17:08:07.035Z,90.10
2018-09-01T17:10:41.558Z,90.10
2018-09-01T17:13:16.179Z,89.50
2018-09-01T17:15:50.704Z,89.50
2018-09-01T17:18:25.598Z,89.50
2018-09-01T17:20:59.953Z,89.40
2018-09-01T17:23:34.583Z,88.90
2018-09-01T17:26:09.204Z,89.00
2018-09-01T17:28:43.639Z,89.20
2018-09-01T17:31:18.823Z,89.40
2018-09-01T17:33:53.830Z,90.00
2018-09-01T17:36:28.887Z,89.50
2018-09-01T17:39:05.363Z,89.60
2018-09-01T17:41:41.183Z,89.60
2018-09-01T17:44:15.868Z,89.60
2018-09-01T17:46:50.421Z,90.20
2018-09-01T17:49:26.166Z,89.90
2018-09-01T17:52:00.424Z,89.90
2018-09-01T17:54:34.836Z,89.90
2018-09-01T17:57:09.388Z,90.00
2018-09-01T17:59:43.748Z,90.00
2018-09-01T18:02:18.550Z,90.00
2018-09-01T18:04:52.774Z,90.10
2018-09-01T18:07:27.403Z,90.10
2018-09-01T18:10:01.845Z,90.10
2018-09-01T18:12:36.351Z,90.10
2018-09-01T18:15:10.880Z,90.10
2018-09-01T18:17:45.614Z,90.00
2018-09-01T18:20:20.147Z,90.00
2018-09-01T18:22:54.679Z,90.10
2018-09-01T18:25:29.596Z,90.10
2018-09-01T18:28:03.806Z,90.10
2018-09-01T18:30:38.512Z,90.10
2018-09-01T18:33:13.114Z,90.10
2018-09-01T18:35:47.808Z,90.30
2018-09-01T18:38:22.472Z,90.10
2018-09-01T18:40:57.300Z,90.10
2018-09-01T18:43:31.915Z,90.20
2018-09-01T18:46:08.643Z,90.20
2018-09-01T18:48:43.429Z,90.20
2018-09-01T18:51:18.078Z,90.40
2018-09-01T18:53:52.874Z,90.10
2018-09-01T18:56:27.484Z,90.10
2018-09-01T18:59:02.013Z,90.20
2018-09-01T19:01:36.792Z,90.10
2018-09-01T19:04:11.604Z,90.20
2018-09-01T19:06:46.223Z,90.20
2018-09-01T19:09:20.725Z,90.20
2018-09-01T19:11:55.748Z,90.10
2018-09-01T19:14:30.642Z,90.10
2018-09-01T19:17:05.241Z,90.50
2018-09-01T19:19:40.417Z,90.30
2018-09-01T19:22:15.084Z,90.30
2018-09-01T19:24:49.877Z,90.30
2018-09-01T19:27:24.570Z,90.30
2018-09-01T19:29:59.224Z,90.40
2018-09-01T19:32:33.894Z,90.30
2018-09-01T19:35:08.681Z,90.40
2018-09-01T19:37:43.612Z,90.40
2018-09-01T19:40:18.037Z,90.50
2018-09-01T19:42:52.654Z,90.30
2018-09-01T19:45:27.559Z,90.30
2018-09-01T19:48:02.081Z,90.30
2018-09-01T19:50:36.956Z,90.30
2018-09-01T19:53:11.413Z,90.30
2018-09-01T19:55:46.130Z,90.30
2018-09-01T19:58:20.789Z,90.40
2018-09-01T20:00:55.656Z,90.50
2018-09-01T20:03:30.253Z,90.50
2018-09-01T20:06:05.101Z,90.60
2018-09-01T20:08:39.580Z,90.50
2018-09-01T20:11:14.124Z,90.50
2018-09-01T20:13:48.883Z,90.50
2018-09-01T20:16:23.616Z,90.60
2018-09-01T20:18:58.239Z,90.60
2018-09-01T20:21:32.899Z,90.60
2018-09-01T20:24:07.934Z,90.60
2018-09-01T20:26:43.101Z,90.60
2018-09-01T20:29:18.212Z,90.60
2018-09-01T20:31:52.666Z,90.50
2018-09-01T20:34:27.379Z,90.50
2018-09-01T20:37:01.964Z,90.50
2018-09-01T20:39:36.528Z,90.50
2018-09-01T20:42:11.375Z,90.50
2018-09-01T20:44:46.000Z,90.50
2018-09-01T20:47:20.636Z,90.50
2018-09-01T20:49:55.419Z,90.40
2018-09-01T20:52:30.392Z,90.40
2018-09-01T20:55:05.005Z,90.40
2018-09-01T20:57:39.760Z,90.50
2018-09-01T21:00:14.701Z,90.50
2018-09-01T21:02:49.249Z,90.50
2018-09-01T21:05:23.847Z,90.60
2018-09-01T21:07:58.600Z,90.50
2018-09-01T21:10:33.137Z,90.60
2018-09-01T21:13:07.956Z,90.50
2018-09-01T21:15:42.577Z,90.50
2018-09-01T21:18:17.303Z,90.50
2018-09-01T21:20:51.928Z,90.50
2018-09-01T21:23:26.697Z,90.50
2018-09-01T21:26:01.304Z,90.50
2018-09-01T21:28:35.828Z,90.50
2018-09-01T21:31:10.428Z,90.50
2018-09-01T21:33:44.967Z,90.60
2018-09-01T21:36:19.730Z,90.50
2018-09-01T21:38:54.239Z,90.50
2018-09-01T21:41:28.875Z,90.50
2018-09-01T21:44:03.503Z,90.50
2018-09-01T21:46:37.913Z,90.50
2018-09-01T21:49:12.364Z,90.50
2018-09-01T21:51:47.064Z,90.50
2018-09-01T21:54:21.793Z,90.50
2018-09-01T21:56:56.446Z,90.50
2018-09-01T21:59:31.003Z,90.50
2018-09-01T22:02:11.439Z,90.50
2018-09-01T22:04:51.628Z,90.50
2018-09-01T22:07:26.699Z,90.50
2018-09-01T22:10:01.596Z,90.50
2018-09-01T22:12:36.670Z,90.60
2018-09-01T22:15:10.805Z,90.60
2018-09-01T22:17:45.301Z,90.50
2018-09-01T22:20:20.058Z,90.50
2018-09-01T22:22:54.826Z,90.50
2018-09-01T22:25:29.414Z,90.60
2018-09-01T22:28:04.232Z,90.50
2018-09-01T22:30:38.869Z,90.50
2018-09-01T22:33:13.480Z,90.50
2018-09-01T22:35:48.046Z,90.50
2018-09-01T22:38:22.761Z,90.40
2018-09-01T22:40:57.355Z,90.40
2018-09-01T22:43:32.022Z,90.40
2018-09-01T22:46:06.783Z,90.30
2018-09-01T22:48:41.886Z,90.30
2018-09-01T22:51:16.066Z,90.30
2018-09-01T22:53:50.628Z,90.30
2018-09-01T22:56:25.265Z,90.30
2018-09-01T22:58:59.980Z,90.40
2018-09-01T23:01:34.622Z,90.40
2018-09-01T23:04:09.331Z,90.40
2018-09-01T23:06:43.947Z,90.50
2018-09-01T23:09:18.568Z,90.50
2018-09-01T23:11:53.082Z,90.50
2018-09-01T23:14:27.912Z,90.50
2018-09-01T23:17:02.744Z,90.50
2018-09-01T23:19:36.918Z,90.50
2018-09-01T23:22:11.691Z,90.50
2018-09-01T23:24:46.604Z,90.50
2018-09-01T23:27:21.061Z,90.50
2018-09-01T23:29:55.759Z,90.40
2018-09-01T23:32:30.857Z,90.50
2018-09-01T23:35:05.322Z,90.40
2018-09-01T23:37:39.660Z,90.50
2018-09-01T23:40:14.363Z,90.50
2018-09-01T23:42:48.984Z,90.40
2018-09-01T23:45:23.664Z,90.40
2018-09-01T23:47:58.985Z,90.40
2018-09-01T23:50:33.281Z,90.40
2018-09-01T23:53:07.721Z,90.40
2018-09-01T23:55:43.289Z,90.30
2018-09-01T23:58:17.996Z,90.30
